createdAt,value
2018-11-04T00:00:18.126Z,77.48
2018-11-04T00:01:18.102Z,77.58
2018-11-04T00:02:18.099Z,77.27
2018-11-04T00:03:18.081Z,77.58
2018-11-04T00:04:18.070Z,77.58
2018-11-04T00:05:18.071Z,77.37
2018-11-04T00:06:18.050Z,77.27
2018-11-04T00:07:18.038Z,77.27
2018-11-04T00:08:18.027Z,77.27
2018-11-04T00:09:18.017Z,77.55
2018-11-04T00:10:18.020Z,77.17
2018-11-04T00:11:17.995Z,77.17
2018-11-04T00:12:17.987Z,77.27
2018-11-04T00:13:18.124Z,77.27
2018-11-04T00:14:17.964Z,77.17
2018-11-04T00:15:17.966Z,77.79
2018-11-04T00:16:17.943Z,77.37
2018-11-04T00:17:17.935Z,77.79
2018-11-04T00:18:17.926Z,77.17
2018-11-04T00:19:17.912Z,77.58
2018-11-04T00:20:17.941Z,77.44
2018-11-04T00:21:17.902Z,77.48
2018-11-04T00:22:17.878Z,77.27
2018-11-04T00:23:17.867Z,77.37
2018-11-04T00:24:17.857Z,77.37
2018-11-04T00:25:17.856Z,77.89
2018-11-04T00:26:17.834Z,77.89
2018-11-04T00:27:17.873Z,77.89
2018-11-04T00:28:17.813Z,77.58
2018-11-04T00:29:17.803Z,77.89
2018-11-04T00:30:17.806Z,78.10
2018-11-04T00:31:17.796Z,77.37
2018-11-04T00:32:17.775Z,78.00
2018-11-04T00:33:17.760Z,78.10
2018-11-04T00:34:17.749Z,78.31
2018-11-04T00:35:17.750Z,77.58
2018-11-04T00:36:17.730Z,77.79
2018-11-04T00:37:17.717Z,77.69
2018-11-04T00:38:17.706Z,77.69
2018-11-04T00:39:17.696Z,77.48
2018-11-04T00:40:17.697Z,78.10
2018-11-04T00:41:17.686Z,77.89
2018-11-04T00:42:17.664Z,77.89
2018-11-04T00:43:17.653Z,77.79
2018-11-04T00:44:17.643Z,78.63
2018-11-04T00:45:17.717Z,78.20
2018-11-04T00:46:17.633Z,78.20
2018-11-04T00:47:17.616Z,78.42
2018-11-04T00:48:17.601Z,78.63
2018-11-04T00:49:17.589Z,78.10
2018-11-04T00:50:17.578Z,78.52
2018-11-04T00:51:17.589Z,78.20
2018-11-04T00:52:17.571Z,78.63
2018-11-04T00:53:17.552Z,78.20
2018-11-04T00:54:17.534Z,78.63
2018-11-04T00:55:17.524Z,78.31
2018-11-04T00:56:17.516Z,78.31
2018-11-04T00:57:17.525Z,78.31
2018-11-04T00:58:17.491Z,78.63
2018-11-04T00:59:17.482Z,78.42
2018-11-04T01:00:17.493Z,78.31
2018-11-04T01:01:17.459Z,78.42
2018-11-04T01:02:17.449Z,78.31
2018-11-04T01:03:17.454Z,78.10
2018-11-04T01:04:17.431Z,78.31
2018-11-04T01:05:17.421Z,78.73
2018-11-04T01:06:17.409Z,78.52
2018-11-04T01:07:17.409Z,78.20
2018-11-04T01:08:17.398Z,78.42
2018-11-04T01:09:17.475Z,78.73
2018-11-04T01:10:17.364Z,78.20
2018-11-04T01:11:17.356Z,78.83
2018-11-04T01:12:17.579Z,78.83
2018-11-04T01:13:17.352Z,79.04
2018-11-04T01:14:17.323Z,78.49
2018-11-04T01:15:17.310Z,78.52
2018-11-04T01:16:17.302Z,77.89
2018-11-04T01:17:17.292Z,78.20
2018-11-04T01:18:17.291Z,78.31
2018-11-04T01:19:17.270Z,79.04
2018-11-04T01:20:17.259Z,78.73
2018-11-04T01:21:17.247Z,78.52
2018-11-04T01:22:17.238Z,78.63
2018-11-04T01:23:17.238Z,78.31
2018-11-04T01:24:17.279Z,79.04
2018-11-04T01:25:17.211Z,79.04
2018-11-04T01:26:17.196Z,79.04
2018-11-04T01:27:17.182Z,78.94
2018-11-04T01:28:17.199Z,79.04
2018-11-04T01:29:17.201Z,79.14
2018-11-04T01:30:17.175Z,78.94
2018-11-04T01:31:17.145Z,79.04
2018-11-04T01:32:17.130Z,79.04
2018-11-04T01:33:17.128Z,78.83
2018-11-04T01:34:17.122Z,79.14
2018-11-04T01:35:17.113Z,78.83
2018-11-04T01:36:17.090Z,79.04
2018-11-04T01:37:17.078Z,79.14
2018-11-04T01:38:17.068Z,78.52
2018-11-04T01:39:17.068Z,78.94
2018-11-04T01:40:17.061Z,79.04
2018-11-04T01:41:17.037Z,78.94
2018-11-04T01:42:17.024Z,78.83
2018-11-04T01:43:17.016Z,79.04
2018-11-04T01:44:17.017Z,79.14
2018-11-04T01:45:16.992Z,78.83
2018-11-04T01:46:16.982Z,79.04
2018-11-04T01:47:16.974Z,78.94
2018-11-04T01:48:16.962Z,78.83
2018-11-04T01:49:16.966Z,78.52
2018-11-04T01:50:16.951Z,79.04
2018-11-04T01:51:16.930Z,79.04
2018-11-04T01:52:16.917Z,79.04
2018-11-04T01:53:16.908Z,79.14
2018-11-04T01:54:17.072Z,79.14
2018-11-04T01:55:16.885Z,79.14
2018-11-04T01:56:16.874Z,78.83
2018-11-04T01:57:16.864Z,78.94
2018-11-04T01:58:16.854Z,78.87
2018-11-04T01:59:16.855Z,79.04
2018-11-04T02:00:16.834Z,78.83
2018-11-04T02:01:16.824Z,79.04
2018-11-04T02:02:16.810Z,79.04
2018-11-04T02:03:16.805Z,78.94
2018-11-04T02:04:16.804Z,79.35
2018-11-04T02:05:16.795Z,79.04
2018-11-04T02:06:16.772Z,79.25
2018-11-04T02:07:16.760Z,79.14
2018-11-04T02:08:16.746Z,79.46
2018-11-04T02:09:16.738Z,79.35
2018-11-04T02:10:17.064Z,79.56
2018-11-04T02:11:16.716Z,79.66
2018-11-04T02:12:16.708Z,79.66
2018-11-04T02:13:16.698Z,79.98
2018-11-04T02:14:16.682Z,79.66
2018-11-04T02:15:16.686Z,79.77
2018-11-04T02:16:16.673Z,79.56
2018-11-04T02:17:16.650Z,79.56
2018-11-04T02:18:16.639Z,79.46
2018-11-04T02:19:16.628Z,79.77
2018-11-04T02:20:16.630Z,79.14
2018-11-04T02:21:16.606Z,79.35
2018-11-04T02:22:16.601Z,79.46
2018-11-04T02:23:16.586Z,78.94
2018-11-04T02:24:16.575Z,79.35
2018-11-04T02:25:16.592Z,78.52
2018-11-04T02:26:16.554Z,79.46
2018-11-04T02:27:16.546Z,79.14
2018-11-04T02:28:16.534Z,79.04
2018-11-04T02:29:16.523Z,79.21
2018-11-04T02:30:16.513Z,79.04
2018-11-04T02:31:16.514Z,78.94
2018-11-04T02:32:16.489Z,79.04
2018-11-04T02:33:16.481Z,78.73
2018-11-04T02:34:16.470Z,78.83
2018-11-04T02:35:16.459Z,78.73
2018-11-04T02:36:16.573Z,79.04
2018-11-04T02:37:16.436Z,78.69
2018-11-04T02:38:16.428Z,79.14
2018-11-04T02:39:16.415Z,78.52
2018-11-04T02:40:16.404Z,79.04
2018-11-04T02:41:16.395Z,78.83
2018-11-04T02:42:16.400Z,79.04
2018-11-04T02:43:16.375Z,79.25
2018-11-04T02:44:16.362Z,79.14
2018-11-04T02:45:16.351Z,79.35
2018-11-04T02:46:16.341Z,78.73
2018-11-04T02:47:16.352Z,78.94
2018-11-04T02:48:16.321Z,79.25
2018-11-04T02:49:16.309Z,79.14
2018-11-04T02:50:16.323Z,79.14
2018-11-04T02:51:16.289Z,78.73
2018-11-04T02:52:16.297Z,78.59
2018-11-04T02:53:16.264Z,79.14
2018-11-04T02:54:16.253Z,79.04
2018-11-04T02:55:16.244Z,79.14
2018-11-04T02:56:16.232Z,79.35
2018-11-04T02:57:16.222Z,79.46
2018-11-04T02:58:16.222Z,79.14
2018-11-04T02:59:16.202Z,79.11
2018-11-04T03:00:16.191Z,79.11
2018-11-04T03:01:16.182Z,79.04
2018-11-04T03:02:16.169Z,79.14
2018-11-04T03:03:16.561Z,79.14
2018-11-04T03:04:16.147Z,78.94
2018-11-04T03:05:16.137Z,78.73
2018-11-04T03:06:16.128Z,79.04
2018-11-04T03:07:16.116Z,78.73
2018-11-04T03:08:16.115Z,78.73
2018-11-04T03:09:16.096Z,78.83
2018-11-04T03:10:16.179Z,78.63
2018-11-04T03:11:16.072Z,78.83
2018-11-04T03:12:16.062Z,78.73
2018-11-04T03:13:16.068Z,79.25
2018-11-04T03:14:16.040Z,79.25
2018-11-04T03:15:16.030Z,79.25
2018-11-04T03:16:16.019Z,78.83
2018-11-04T03:17:16.008Z,79.14
2018-11-04T03:18:15.999Z,78.83
2018-11-04T03:19:16.000Z,78.69
2018-11-04T03:20:15.986Z,79.25
2018-11-04T03:21:15.966Z,78.52
2018-11-04T03:22:15.955Z,78.42
2018-11-04T03:23:15.955Z,79.35
2018-11-04T03:24:15.949Z,78.73
2018-11-04T03:25:15.923Z,79.00
2018-11-04T03:26:15.919Z,78.42
2018-11-04T03:27:15.901Z,78.83
2018-11-04T03:28:15.894Z,78.83
2018-11-04T03:29:15.891Z,78.90
2018-11-04T03:30:15.871Z,78.31
2018-11-04T03:31:15.859Z,79.04
2018-11-04T03:32:15.852Z,79.04
2018-11-04T03:33:15.836Z,79.14
2018-11-04T03:34:15.839Z,78.73
2018-11-04T03:35:15.816Z,78.94
2018-11-04T03:36:15.805Z,78.69
2018-11-04T03:37:15.796Z,79.00
2018-11-04T03:38:15.785Z,79.04
2018-11-04T03:39:15.784Z,78.94
2018-11-04T03:40:15.773Z,79.00
2018-11-04T03:41:15.756Z,78.94
2018-11-04T03:42:15.741Z,78.80
2018-11-04T03:43:15.729Z,79.04
2018-11-04T03:44:15.733Z,79.00
2018-11-04T03:45:15.721Z,78.94
2018-11-04T03:46:15.698Z,78.94
2018-11-04T03:47:15.688Z,79.00
2018-11-04T03:48:15.677Z,78.63
2018-11-04T03:49:15.691Z,78.52
2018-11-04T03:50:15.656Z,78.42
2018-11-04T03:51:15.645Z,78.63
2018-11-04T03:52:15.634Z,78.42
2018-11-04T03:53:15.623Z,78.52
2018-11-04T03:54:15.611Z,78.80
2018-11-04T03:55:15.614Z,78.94
2018-11-04T03:56:15.590Z,78.83
2018-11-04T03:57:15.580Z,79.25
2018-11-04T03:58:15.569Z,79.14
2018-11-04T03:59:15.559Z,78.42
2018-11-04T04:00:15.571Z,78.73
2018-11-04T04:01:15.541Z,78.63
2018-11-04T04:02:15.527Z,79.25
2018-11-04T04:03:15.518Z,78.80
2018-11-04T04:04:15.505Z,78.52
2018-11-04T04:05:15.495Z,79.14
2018-11-04T04:06:15.496Z,79.21
2018-11-04T04:07:15.473Z,79.04
2018-11-04T04:08:15.466Z,79.14
2018-11-04T04:09:15.452Z,79.14
2018-11-04T04:10:15.443Z,79.35
2018-11-04T04:11:15.444Z,79.46
2018-11-04T04:12:15.420Z,79.46
2018-11-04T04:13:15.419Z,79.66
2018-11-04T04:14:15.397Z,79.56
2018-11-04T04:15:15.388Z,79.66
2018-11-04T04:16:15.390Z,79.63
2018-11-04T04:17:15.368Z,79.66
2018-11-04T04:18:15.356Z,79.56
2018-11-04T04:19:15.345Z,79.66
2018-11-04T04:20:15.334Z,79.52
2018-11-04T04:21:15.337Z,80.05
2018-11-04T04:22:15.317Z,79.56
2018-11-04T04:23:15.301Z,79.87
2018-11-04T04:24:15.292Z,79.77
2018-11-04T04:25:15.285Z,79.66
2018-11-04T04:26:15.281Z,79.66
2018-11-04T04:27:15.260Z,79.42
2018-11-04T04:28:15.249Z,79.66
2018-11-04T04:29:15.238Z,79.77
2018-11-04T04:30:15.228Z,79.87
2018-11-04T04:31:15.229Z,79.77
2018-11-04T04:32:15.208Z,79.77
2018-11-04T04:33:15.195Z,79.73
2018-11-04T04:34:15.184Z,79.52
2018-11-04T04:35:15.173Z,79.66
2018-11-04T04:36:15.173Z,79.63
2018-11-04T04:37:15.164Z,79.63
2018-11-04T04:38:15.140Z,79.73
2018-11-04T04:39:15.130Z,79.66
2018-11-04T04:40:15.120Z,79.77
2018-11-04T04:41:15.109Z,79.52
2018-11-04T04:42:15.111Z,79.77
2018-11-04T04:43:15.087Z,79.52
2018-11-04T04:44:15.076Z,80.26
2018-11-04T04:45:15.068Z,79.32
2018-11-04T04:46:15.055Z,79.63
2018-11-04T04:47:15.058Z,79.73
2018-11-04T04:48:15.036Z,79.63
2018-11-04T04:49:15.024Z,79.63
2018-11-04T04:50:15.013Z,79.83
2018-11-04T04:51:15.002Z,79.63
2018-11-04T04:52:15.002Z,79.63
2018-11-04T04:53:15.010Z,79.73
2018-11-04T04:54:14.970Z,79.83
2018-11-04T04:55:14.957Z,79.52
2018-11-04T04:56:14.949Z,79.83
2018-11-04T04:57:14.961Z,79.63
2018-11-04T04:58:14.927Z,79.83
2018-11-04T04:59:14.919Z,79.63
2018-11-04T05:00:14.950Z,79.94
2018-11-04T05:01:14.898Z,80.05
2018-11-04T05:02:14.887Z,79.83
2018-11-04T05:03:14.885Z,79.63
2018-11-04T05:04:14.861Z,79.73
2018-11-04T05:05:14.853Z,79.63
2018-11-04T05:06:14.843Z,79.00
2018-11-04T05:07:14.831Z,79.63
2018-11-04T05:08:14.834Z,79.42
2018-11-04T05:09:14.808Z,79.42
2018-11-04T05:10:14.799Z,79.83
2018-11-04T05:11:14.789Z,80.15
2018-11-04T05:12:14.778Z,80.15
2018-11-04T05:13:14.777Z,80.36
2018-11-04T05:14:14.759Z,80.36
2018-11-04T05:15:14.745Z,80.05
2018-11-04T05:16:14.738Z,79.94
2018-11-04T05:17:14.724Z,80.05
2018-11-04T05:18:14.725Z,80.77
2018-11-04T05:19:14.712Z,80.57
2018-11-04T05:20:14.693Z,80.57
2018-11-04T05:21:14.680Z,80.74
2018-11-04T05:22:14.672Z,80.74
2018-11-04T05:23:14.658Z,80.77
2018-11-04T05:24:14.660Z,80.57
2018-11-04T05:25:14.637Z,80.46
2018-11-04T05:26:14.629Z,80.57
2018-11-04T05:27:14.617Z,80.67
2018-11-04T05:28:14.607Z,80.46
2018-11-04T05:29:15.048Z,80.77
2018-11-04T05:30:14.585Z,80.63
2018-11-04T05:31:14.575Z,80.53
2018-11-04T05:32:14.562Z,80.57
2018-11-04T05:33:14.553Z,80.46
2018-11-04T05:34:14.552Z,80.53
2018-11-04T05:35:14.530Z,80.11
2018-11-04T05:36:14.523Z,80.53
2018-11-04T05:37:14.509Z,80.57
2018-11-04T05:38:14.503Z,80.53
2018-11-04T05:39:14.546Z,80.32
2018-11-04T05:40:14.476Z,80.53
2018-11-04T05:41:14.470Z,80.43
2018-11-04T05:42:14.454Z,80.43
2018-11-04T05:43:14.444Z,80.43
2018-11-04T05:44:14.445Z,80.63
2018-11-04T05:45:14.435Z,81.29
2018-11-04T05:46:14.414Z,81.15
2018-11-04T05:47:14.401Z,81.46
2018-11-04T05:48:14.391Z,81.40
2018-11-04T05:49:14.408Z,81.46
2018-11-04T05:50:14.369Z,81.15
2018-11-04T05:51:14.367Z,81.36
2018-11-04T05:52:14.348Z,81.05
2018-11-04T05:53:14.342Z,81.15
2018-11-04T05:54:14.327Z,81.77
2018-11-04T05:55:14.341Z,80.94
2018-11-04T05:56:14.305Z,81.67
2018-11-04T05:57:14.300Z,81.46
2018-11-04T05:58:14.283Z,81.67
2018-11-04T05:59:14.275Z,81.46
2018-11-04T06:00:14.263Z,81.15
2018-11-04T06:01:14.264Z,81.26
2018-11-04T06:02:14.240Z,81.15
2018-11-04T06:03:14.233Z,81.67
2018-11-04T06:04:14.230Z,81.63
2018-11-04T06:05:14.210Z,81.77
2018-11-04T06:06:14.198Z,81.77
2018-11-04T06:07:14.186Z,82.20
2018-11-04T06:08:14.176Z,81.98
2018-11-04T06:09:14.176Z,82.26
2018-11-04T06:10:14.155Z,82.26
2018-11-04T06:11:14.157Z,82.05
2018-11-04T06:12:14.149Z,82.15
2018-11-04T06:13:14.132Z,81.74
2018-11-04T06:14:14.113Z,82.36
2018-11-04T06:15:14.122Z,81.95
2018-11-04T06:16:14.091Z,81.84
2018-11-04T06:17:14.104Z,82.05
2018-11-04T06:18:14.075Z,81.95
2018-11-04T06:19:14.071Z,81.95
2018-11-04T06:20:14.051Z,81.95
2018-11-04T06:21:14.050Z,82.46
2018-11-04T06:22:14.028Z,81.95
2018-11-04T06:23:14.018Z,82.99
2018-11-04T06:24:14.010Z,82.36
2018-11-04T06:25:13.995Z,82.89
2018-11-04T06:26:13.999Z,83.30
2018-11-04T06:27:13.978Z,81.84
2018-11-04T06:28:13.965Z,82.26
2018-11-04T06:29:13.959Z,82.26
2018-11-04T06:30:13.942Z,82.26
2018-11-04T06:31:13.958Z,82.46
2018-11-04T06:32:13.920Z,82.15
2018-11-04T06:33:13.910Z,82.46
2018-11-04T06:34:13.900Z,82.15
2018-11-04T06:35:13.887Z,82.26
2018-11-04T06:36:14.045Z,82.43
2018-11-04T06:37:13.880Z,82.43
2018-11-04T06:38:13.861Z,82.43
2018-11-04T06:39:13.846Z,82.32
2018-11-04T06:40:13.834Z,81.95
2018-11-04T06:41:14.024Z,81.91
2018-11-04T06:42:13.819Z,81.91
2018-11-04T06:43:13.815Z,81.91
2018-11-04T06:44:13.793Z,81.91
2018-11-04T06:45:13.781Z,82.12
2018-11-04T06:46:13.771Z,82.22
2018-11-04T06:47:13.876Z,81.81
2018-11-04T06:48:13.780Z,82.12
2018-11-04T06:49:13.740Z,82.12
2018-11-04T06:50:13.737Z,82.01
2018-11-04T06:51:13.717Z,81.81
2018-11-04T06:52:13.706Z,81.39
2018-11-04T06:53:13.697Z,82.12
2018-11-04T06:54:13.705Z,82.08
2018-11-04T06:55:13.677Z,82.12
2018-11-04T06:56:13.664Z,81.98
2018-11-04T06:57:13.654Z,82.01
2018-11-04T06:58:13.672Z,82.01
2018-11-04T06:59:13.632Z,81.91
2018-11-04T07:00:13.621Z,82.29
2018-11-04T07:01:13.612Z,82.18
2018-11-04T07:02:13.600Z,81.46
2018-11-04T07:03:13.591Z,82.18
2018-11-04T07:04:13.591Z,82.43
2018-11-04T07:05:13.568Z,82.39
2018-11-04T07:06:13.558Z,82.29
2018-11-04T07:07:13.547Z,82.08
2018-11-04T07:08:13.546Z,82.18
2018-11-04T07:09:13.543Z,81.67
2018-11-04T07:10:13.519Z,81.98
2018-11-04T07:11:13.505Z,82.39
2018-11-04T07:12:13.493Z,81.67
2018-11-04T07:13:13.486Z,81.87
2018-11-04T07:14:13.492Z,82.08
2018-11-04T07:15:13.476Z,81.98
2018-11-04T07:16:13.452Z,82.81
2018-11-04T07:17:13.441Z,81.98
2018-11-04T07:18:13.432Z,82.77
2018-11-04T07:19:13.419Z,82.91
2018-11-04T07:20:13.420Z,82.25
2018-11-04T07:21:13.400Z,82.25
2018-11-04T07:22:13.387Z,82.46
2018-11-04T07:23:13.377Z,82.60
2018-11-04T07:24:13.367Z,82.56
2018-11-04T07:25:13.368Z,82.46
2018-11-04T07:26:13.346Z,82.46
2018-11-04T07:27:13.333Z,82.67
2018-11-04T07:28:13.324Z,82.60
2018-11-04T07:29:13.325Z,82.67
2018-11-04T07:30:13.313Z,82.77
2018-11-04T07:31:13.293Z,82.56
2018-11-04T07:32:13.394Z,82.77
2018-11-04T07:33:13.272Z,82.87
2018-11-04T07:34:13.261Z,82.87
2018-11-04T07:35:13.261Z,83.18
2018-11-04T07:36:13.239Z,82.98
2018-11-04T07:37:13.235Z,83.08
2018-11-04T07:38:13.219Z,82.98
2018-11-04T07:39:13.210Z,83.36
2018-11-04T07:40:13.538Z,82.87
2018-11-04T07:41:13.186Z,83.67
2018-11-04T07:42:13.176Z,82.67
2018-11-04T07:43:13.167Z,82.87
2018-11-04T07:44:13.232Z,82.98
2018-11-04T07:45:13.163Z,83.04
2018-11-04T07:46:13.132Z,82.67
2018-11-04T07:47:13.123Z,82.32
2018-11-04T07:48:13.112Z,82.67
2018-11-04T07:49:13.101Z,83.25
2018-11-04T07:50:13.094Z,83.36
2018-11-04T07:51:13.092Z,82.84
2018-11-04T07:52:13.068Z,82.84
2018-11-04T07:53:13.061Z,83.25
2018-11-04T07:54:13.046Z,82.73
2018-11-04T07:55:13.036Z,83.04
2018-11-04T07:56:13.038Z,83.67
2018-11-04T07:57:13.017Z,83.15
2018-11-04T07:58:13.003Z,83.25
2018-11-04T07:59:12.995Z,83.04
2018-11-04T08:00:13.155Z,83.22
2018-11-04T08:01:12.995Z,83.04
2018-11-04T08:02:12.960Z,83.01
2018-11-04T08:03:12.952Z,83.01
2018-11-04T08:04:13.028Z,82.80
2018-11-04T08:05:12.929Z,83.32
2018-11-04T08:06:12.917Z,82.80
2018-11-04T08:07:12.920Z,83.01
2018-11-04T08:08:12.897Z,83.25
2018-11-04T08:09:12.889Z,83.11
2018-11-04T08:10:12.877Z,83.84
2018-11-04T08:11:12.865Z,83.53
2018-11-04T08:12:12.869Z,83.42
2018-11-04T08:13:12.842Z,83.32
2018-11-04T08:14:12.838Z,83.32
2018-11-04T08:15:12.825Z,83.53
2018-11-04T08:16:12.825Z,83.11
2018-11-04T08:17:12.814Z,83.32
2018-11-04T08:18:12.791Z,83.48
2018-11-04T08:19:12.779Z,83.42
2018-11-04T08:20:12.769Z,83.48
2018-11-04T08:21:12.821Z,83.17
2018-11-04T08:22:12.758Z,83.28
2018-11-04T08:23:12.739Z,83.38
2018-11-04T08:24:12.727Z,83.80
2018-11-04T08:25:12.715Z,83.80
2018-11-04T08:26:12.705Z,83.48
2018-11-04T08:27:12.718Z,83.69
2018-11-04T08:28:12.685Z,83.90
2018-11-04T08:29:12.673Z,83.90
2018-11-04T08:30:12.664Z,83.80
2018-11-04T08:31:12.652Z,83.55
2018-11-04T08:32:12.662Z,83.80
2018-11-04T08:33:12.633Z,83.86
2018-11-04T08:34:12.619Z,83.65
2018-11-04T08:35:12.606Z,83.45
2018-11-04T08:36:12.599Z,83.45
2018-11-04T08:37:12.592Z,83.55
2018-11-04T08:38:12.588Z,83.65
2018-11-04T08:39:12.565Z,83.34
2018-11-04T08:40:12.647Z,83.76
2018-11-04T08:41:12.545Z,83.76
2018-11-04T08:42:12.535Z,84.28
2018-11-04T08:43:12.536Z,84.59
2018-11-04T08:44:12.513Z,84.59
2018-11-04T08:45:12.504Z,84.59
2018-11-04T08:46:12.490Z,84.48
2018-11-04T08:47:12.479Z,84.23
2018-11-04T08:48:12.482Z,84.03
2018-11-04T08:49:12.461Z,84.86
2018-11-04T08:50:12.448Z,85.06
2018-11-04T08:51:12.437Z,84.75
2018-11-04T08:52:12.427Z,84.75
2018-11-04T08:53:12.429Z,84.44
2018-11-04T08:54:12.405Z,85.38
2018-11-04T08:55:12.394Z,85.06
2018-11-04T08:56:12.384Z,85.38
2018-11-04T08:57:12.373Z,85.17
2018-11-04T08:58:12.374Z,85.17
2018-11-04T08:59:12.533Z,85.58
2018-11-04T09:00:12.450Z,85.75
2018-11-04T09:01:12.332Z,85.65
2018-11-04T09:02:12.322Z,85.55
2018-11-04T09:03:12.309Z,85.75
2018-11-04T09:04:12.308Z,85.34
2018-11-04T09:05:12.290Z,85.96
2018-11-04T09:06:12.274Z,86.07
2018-11-04T09:07:12.264Z,85.65
2018-11-04T09:08:12.259Z,86.37
2018-11-04T09:09:12.264Z,85.92
2018-11-04T09:10:12.234Z,86.37
2018-11-04T09:11:12.221Z,86.75
2018-11-04T09:12:12.212Z,86.65
2018-11-04T09:13:12.205Z,86.65
2018-11-04T09:14:12.259Z,86.54
2018-11-04T09:15:12.179Z,86.23
2018-11-04T09:16:12.170Z,86.44
2018-11-04T09:17:12.161Z,86.23
2018-11-04T09:18:12.153Z,86.33
2018-11-04T09:19:12.148Z,86.44
2018-11-04T09:20:12.125Z,86.60
2018-11-04T09:21:12.128Z,86.71
2018-11-04T09:22:12.190Z,86.40
2018-11-04T09:23:12.093Z,86.81
2018-11-04T09:24:12.102Z,87.12
2018-11-04T09:25:12.072Z,87.12
2018-11-04T09:26:12.065Z,87.33
2018-11-04T09:27:12.051Z,86.60
2018-11-04T09:28:12.038Z,86.81
2018-11-04T09:29:12.122Z,87.12
2018-11-04T09:30:12.018Z,87.33
2018-11-04T09:31:12.007Z,86.88
2018-11-04T09:32:11.997Z,86.88
2018-11-04T09:33:11.988Z,86.98
2018-11-04T09:34:11.977Z,86.77
2018-11-04T09:35:12.067Z,86.88
2018-11-04T09:36:12.123Z,86.88
2018-11-04T09:37:11.952Z,87.18
2018-11-04T09:38:11.941Z,86.77
2018-11-04T09:39:11.935Z,86.94
2018-11-04T09:40:11.924Z,88.01
2018-11-04T09:41:11.913Z,87.60
2018-11-04T09:42:11.890Z,87.97
2018-11-04T09:43:11.880Z,87.66
2018-11-04T09:44:11.871Z,87.56
2018-11-04T09:45:11.873Z,87.97
2018-11-04T09:46:11.845Z,87.56
2018-11-04T09:47:11.835Z,87.35
2018-11-04T09:48:11.834Z,87.97
2018-11-04T09:49:11.814Z,87.56
2018-11-04T09:50:11.829Z,87.97
2018-11-04T09:51:11.794Z,87.04
2018-11-04T09:52:11.800Z,86.94
2018-11-04T09:53:11.771Z,86.79
2018-11-04T09:54:11.766Z,87.52
2018-11-04T09:55:11.751Z,87.21
2018-11-04T09:56:11.748Z,87.62
2018-11-04T09:57:11.726Z,87.93
2018-11-04T09:58:11.722Z,87.73
2018-11-04T09:59:11.707Z,87.79
2018-11-04T10:00:11.698Z,87.68
2018-11-04T10:01:11.705Z,87.17
2018-11-04T10:02:11.687Z,87.62
2018-11-04T10:03:11.665Z,87.58
2018-11-04T10:04:11.656Z,87.68
2018-11-04T10:05:11.645Z,87.79
2018-11-04T10:06:11.645Z,87.79
2018-11-04T10:07:11.727Z,87.68
2018-11-04T10:08:11.615Z,87.27
2018-11-04T10:09:11.602Z,87.48
2018-11-04T10:10:11.590Z,87.48
2018-11-04T10:11:11.590Z,87.17
2018-11-04T10:12:11.584Z,87.68
2018-11-04T10:13:11.598Z,87.65
2018-11-04T10:14:11.547Z,87.34
2018-11-04T10:15:11.539Z,87.13
2018-11-04T10:16:11.556Z,87.13
2018-11-04T10:17:11.531Z,87.34
2018-11-04T10:18:11.520Z,87.65
2018-11-04T10:19:11.707Z,87.54
2018-11-04T10:20:11.625Z,87.71
2018-11-04T10:21:11.854Z,87.71
2018-11-04T10:22:11.461Z,87.71
2018-11-04T10:23:11.467Z,87.60
2018-11-04T10:24:11.443Z,87.65
2018-11-04T10:25:11.432Z,87.81
2018-11-04T10:26:11.420Z,87.65
2018-11-04T10:27:11.408Z,87.71
2018-11-04T10:28:11.420Z,87.60
2018-11-04T10:29:11.385Z,87.60
2018-11-04T10:30:11.411Z,87.60
2018-11-04T10:31:11.369Z,87.92
2018-11-04T10:32:11.357Z,87.46
2018-11-04T10:33:11.357Z,87.56
2018-11-04T10:34:11.333Z,87.60
2018-11-04T10:35:11.324Z,87.77
2018-11-04T10:36:11.346Z,87.35
2018-11-04T10:37:11.392Z,87.66
2018-11-04T10:38:11.304Z,87.56
2018-11-04T10:39:11.282Z,87.98
2018-11-04T10:40:11.270Z,87.56
2018-11-04T10:41:11.268Z,87.56
2018-11-04T10:42:11.272Z,87.46
2018-11-04T10:43:11.277Z,87.52
2018-11-04T10:44:11.226Z,87.56
2018-11-04T10:45:11.253Z,87.98
2018-11-04T10:46:11.206Z,87.73
2018-11-04T10:47:11.198Z,87.83
2018-11-04T10:48:11.187Z,87.63
2018-11-04T10:49:11.234Z,87.52
2018-11-04T10:50:11.199Z,87.63
2018-11-04T10:51:11.154Z,87.73
2018-11-04T10:52:11.170Z,87.59
2018-11-04T10:53:11.132Z,87.73
2018-11-04T10:54:11.135Z,87.69
2018-11-04T10:55:11.116Z,87.59
2018-11-04T10:56:11.100Z,87.69
2018-11-04T10:57:11.094Z,87.38
2018-11-04T10:58:11.078Z,87.79
2018-11-04T10:59:11.082Z,87.65
2018-11-04T11:00:11.058Z,87.59
2018-11-04T11:01:11.047Z,87.59
2018-11-04T11:02:11.040Z,87.54
2018-11-04T11:03:11.027Z,87.44
2018-11-04T11:04:11.032Z,88.17
2018-11-04T11:05:11.029Z,88.06
2018-11-04T11:06:10.996Z,87.54
2018-11-04T11:07:10.982Z,87.54
2018-11-04T11:08:10.973Z,87.65
2018-11-04T11:09:10.962Z,87.44
2018-11-04T11:10:10.950Z,87.51
2018-11-04T11:11:11.036Z,87.40
2018-11-04T11:12:10.933Z,87.60
2018-11-04T11:13:10.919Z,87.40
2018-11-04T11:14:10.917Z,87.51
2018-11-04T11:15:10.911Z,87.71
2018-11-04T11:16:10.888Z,87.51
2018-11-04T11:17:10.879Z,87.46
2018-11-04T11:18:10.864Z,87.36
2018-11-04T11:19:10.856Z,87.36
2018-11-04T11:20:10.856Z,87.51
2018-11-04T11:21:10.844Z,87.46
2018-11-04T11:22:10.829Z,87.46
2018-11-04T11:23:10.855Z,87.57
2018-11-04T11:24:10.802Z,87.46
2018-11-04T11:25:10.793Z,87.46
2018-11-04T11:26:10.792Z,87.36
2018-11-04T11:27:10.769Z,86.95
2018-11-04T11:28:10.761Z,87.46
2018-11-04T11:29:10.747Z,86.95
2018-11-04T11:30:10.793Z,87.46
2018-11-04T11:31:11.029Z,87.32
2018-11-04T11:32:10.730Z,87.36
2018-11-04T11:33:10.707Z,86.91
2018-11-04T11:34:10.693Z,86.80
2018-11-04T11:35:10.683Z,86.91
2018-11-04T11:36:10.694Z,87.12
2018-11-04T11:37:10.678Z,87.52
2018-11-04T11:38:10.657Z,86.80
2018-11-04T11:39:10.646Z,86.91
2018-11-04T11:40:10.633Z,87.12
2018-11-04T11:41:10.620Z,87.42
2018-11-04T11:42:10.622Z,87.42
2018-11-04T11:43:10.597Z,87.28
2018-11-04T11:44:10.586Z,87.28
2018-11-04T11:45:10.575Z,87.69
2018-11-04T11:46:10.564Z,86.77
2018-11-04T11:47:10.578Z,86.35
2018-11-04T11:48:10.544Z,86.35
2018-11-04T11:49:10.533Z,86.25
2018-11-04T11:50:10.524Z,86.15
2018-11-04T11:51:10.512Z,86.77
2018-11-04T11:52:10.511Z,86.46
2018-11-04T11:53:10.490Z,86.66
2018-11-04T11:54:10.478Z,86.32
2018-11-04T11:55:10.468Z,86.72
2018-11-04T11:56:10.460Z,85.84
2018-11-04T11:57:10.478Z,85.90
2018-11-04T11:58:10.437Z,86.21
2018-11-04T11:59:10.443Z,86.72
2018-11-04T12:00:10.413Z,86.52
2018-11-04T12:01:10.405Z,86.21
2018-11-04T12:02:10.475Z,86.21
2018-11-04T12:03:10.387Z,86.52
2018-11-04T12:04:10.373Z,86.21
2018-11-04T12:05:10.363Z,86.32
2018-11-04T12:06:10.350Z,86.21
2018-11-04T12:07:10.339Z,85.97
2018-11-04T12:08:10.525Z,86.00
2018-11-04T12:09:10.316Z,86.00
2018-11-04T12:10:10.309Z,85.60
2018-11-04T12:11:10.297Z,85.76
2018-11-04T12:12:10.283Z,85.35
2018-11-04T12:13:10.299Z,85.97
2018-11-04T12:14:10.265Z,85.55
2018-11-04T12:15:10.254Z,85.86
2018-11-04T12:16:10.243Z,85.46
2018-11-04T12:17:10.230Z,85.86
2018-11-04T12:18:10.228Z,85.97
2018-11-04T12:19:10.222Z,85.97
2018-11-04T12:20:10.198Z,85.86
2018-11-04T12:21:10.190Z,85.55
2018-11-04T12:22:10.180Z,86.07
2018-11-04T12:23:10.164Z,86.07
2018-11-04T12:24:10.168Z,86.03
2018-11-04T12:25:10.144Z,86.03
2018-11-04T12:26:10.140Z,85.55
2018-11-04T12:27:10.124Z,85.82
2018-11-04T12:28:10.113Z,85.62
2018-11-04T12:29:10.116Z,85.62
2018-11-04T12:30:10.092Z,85.52
2018-11-04T12:31:10.087Z,85.82
2018-11-04T12:32:10.081Z,85.82
2018-11-04T12:33:10.062Z,85.52
2018-11-04T12:34:10.061Z,85.82
2018-11-04T12:35:10.106Z,85.78
2018-11-04T12:36:10.027Z,85.62
2018-11-04T12:37:10.021Z,85.99
2018-11-04T12:38:10.014Z,85.38
2018-11-04T12:39:10.013Z,85.89
2018-11-04T12:40:09.987Z,86.03
2018-11-04T12:41:09.981Z,85.78
2018-11-04T12:42:09.964Z,85.78
2018-11-04T12:43:09.961Z,85.89
2018-11-04T12:44:09.956Z,85.89
2018-11-04T12:45:09.939Z,85.41
2018-11-04T12:46:09.934Z,85.47
2018-11-04T12:47:09.911Z,86.09
2018-11-04T12:48:09.903Z,85.47
2018-11-04T12:49:09.909Z,85.64
2018-11-04T12:50:09.895Z,85.38
2018-11-04T12:51:09.869Z,85.78
2018-11-04T12:52:09.917Z,85.89